sensor_id;sensor_type;location;lat;lon;timestamp;temperature;humidity
26051;DHT22;13825;53.496;10.020;2023-02-03T00:29:11;5.90;99.90
26051;DHT22;13825;53.496;10.020;2023-02-03T00:32:01;6.10;99.90
26051;DHT22;13825;53.496;10.020;2023-02-03T00:34:46;6.10;99.90
26051;DHT22;13825;53.496;10.020;2023-02-03T00:37:42;6.20;99.90
26051;DHT22;13825;53.496;10.020;2023-02-03T00:40:29;6.20;99.90
26051;DHT22;13825;53.496;10.020;2023-02-03T01:09:10;6.80;99.90
26051;DHT22;13825;53.496;10.020;2023-02-03T01:27:25;7.20;99.90
26051;DHT22;13825;53.496;10.020;2023-02-03T01:30:00;7.10;99.90
26051;DHT22;13825;53.496;10.020;2023-02-03T01:32:49;7.10;99.90
26051;DHT22;13825;53.496;10.020;2023-02-03T01:38:44;7.30;99.90
26051;DHT22;13825;53.496;10.020;2023-02-03T01:41:36;7.20;99.90
26051;DHT22;13825;53.496;10.020;2023-02-03T01:44:56;7.20;99.90
26051;DHT22;13825;53.496;10.020;2023-02-03T01:48:16;7.20;99.90
26051;DHT22;13825;53.496;10.020;2023-02-03T02:06:49;7.20;99.90
26051;DHT22;13825;53.496;10.020;2023-02-03T02:16:05;7.30;99.90
26051;DHT22;13825;53.496;10.020;2023-02-03T02:19:27;7.20;99.90
26051;DHT22;13825;53.496;10.020;2023-02-03T02:23:18;7.20;99.90
26051;DHT22;13825;53.496;10.020;2023-02-03T02:26:38;7.20;99.90
26051;DHT22;13825;53.496;10.020;2023-02-03T03:07:04;7.30;99.90
26051;DHT22;13825;53.496;10.020;2023-02-03T03:09:40;7.30;99.90
26051;DHT22;13825;53.496;10.020;2023-02-03T03:12:33;7.30;99.90
26051;DHT22;13825;53.496;10.020;2023-02-03T03:15:25;7.40;99.90
26051;DHT22;13825;53.496;10.020;2023-02-03T03:18:29;7.40;99.90
26051;DHT22;13825;53.496;10.020;2023-02-03T03:23:58;7.40;99.90
26051;DHT22;13825;53.496;10.020;2023-02-03T03:26:56;7.40;99.90
26051;DHT22;13825;53.496;10.020;2023-02-03T03:44:21;7.40;99.90
26051;DHT22;13825;53.496;10.020;2023-02-03T03:47:04;7.50;99.90
26051;DHT22;13825;53.496;10.020;2023-02-03T03:52:37;7.60;99.90
26051;DHT22;13825;53.496;10.020;2023-02-03T03:55:13;7.50;99.90
26051;DHT22;13825;53.496;10.020;2023-02-03T03:57:50;7.50;99.90
26051;DHT22;13825;53.496;10.020;2023-02-03T04:08:43;7.50;99.90
26051;DHT22;13825;53.496;10.020;2023-02-03T04:21:39;7.40;99.90
26051;DHT22;13825;53.496;10.020;2023-02-03T04:42:20;7.30;99.90
26051;DHT22;13825;53.496;10.020;2023-02-03T04:45:13;7.20;99.90
26051;DHT22;13825;53.496;10.020;2023-02-03T04:48:04;7.20;99.90
26051;DHT22;13825;53.496;10.020;2023-02-03T11:00:33;7.90;99.90
26051;DHT22;13825;53.496;10.020;2023-02-03T11:03:04;8.00;1.00
26051;DHT22;13825;53.496;10.020;2023-02-03T11:05:45;8.10;1.00
26051;DHT22;13825;53.496;10.020;2023-02-03T11:08:14;8.00;1.00
26051;DHT22;13825;53.496;10.020;2023-02-03T11:10:46;8.10;1.00
26051;DHT22;13825;53.496;10.020;2023-02-03T11:13:24;8.10;1.00
26051;DHT22;13825;53.496;10.020;2023-02-03T11:15:58;8.10;1.00
26051;DHT22;13825;53.496;10.020;2023-02-03T11:18:46;8.10;1.00
26051;DHT22;13825;53.496;10.020;2023-02-03T11:21:21;8.10;1.00
26051;DHT22;13825;53.496;10.020;2023-02-03T11:24:08;8.10;1.00
26051;DHT22;13825;53.496;10.020;2023-02-03T11:26:41;8.10;1.00
26051;DHT22;13825;53.496;10.020;2023-02-03T11:29:17;8.10;1.00
26051;DHT22;13825;53.496;10.020;2023-02-03T11:31:50;8.10;99.90
26051;DHT22;13825;53.496;10.020;2023-02-03T11:34:27;8.10;99.90
26051;DHT22;13825;53.496;10.020;2023-02-03T11:36:55;8.00;99.90
26051;DHT22;13825;53.496;10.020;2023-02-03T14:24:49;7.50;99.90
26051;DHT22;13825;53.496;10.020;2023-02-03T14:28:04;7.50;99.90
26051;DHT22;13825;53.496;10.020;2023-02-03T15:51:57;7.20;99.90
26051;DHT22;13825;53.496;10.020;2023-02-03T16:02:20;7.20;99.90
26051;DHT22;13825;53.496;10.020;2023-02-03T16:05:26;7.20;99.90
26051;DHT22;13825;53.496;10.020;2023-02-03T16:20:54;7.30;99.90
26051;DHT22;13825;53.496;10.020;2023-02-03T16:31:53;7.20;1.00
26051;DHT22;13825;53.496;10.020;2023-02-03T16:38:18;6.90;99.90
26051;DHT22;13825;53.496;10.020;2023-02-03T22:11:44;4.80;1.00
26051;DHT22;13825;53.496;10.020;2023-02-03T22:49:49;4.10;1.00
26051;DHT22;13825;53.496;10.020;2023-02-03T22:52:24;4.00;1.00
26051;DHT22;13825;53.496;10.020;2023-02-03T22:54:54;3.90;10.30
26051;DHT22;13825;53.496;10.020;2023-02-03T22:57:23;3.80;99.90
26051;DHT22;13825;53.496;10.020;2023-02-03T22:59:56;3.90;81.40
26051;DHT22;13825;53.496;10.020;2023-02-03T23:02:24;3.90;99.90
26051;DHT22;13825;53.496;10.020;2023-02-03T23:04:57;4.10;55.00
26051;DHT22;13825;53.496;10.020;2023-02-03T23:07:27;3.90;99.90
26051;DHT22;13825;53.496;10.020;2023-02-03T23:09:54;3.90;99.90
26051;DHT22;13825;53.496;10.020;2023-02-03T23:12:22;3.80;99.90
26051;DHT22;13825;53.496;10.020;2023-02-03T23:14:52;3.70;99.90
26051;DHT22;13825;53.496;10.020;2023-02-03T23:17:20;3.80;99.90
26051;DHT22;13825;53.496;10.020;2023-02-03T23:20:11;3.80;99.90
26051;DHT22;13825;53.496;10.020;2023-02-03T23:22:45;3.90;1.00
26051;DHT22;13825;53.496;10.020;2023-02-03T23:25:12;4.00;1.00
26051;DHT22;13825;53.496;10.020;2023-02-03T23:27:39;4.00;1.00
26051;DHT22;13825;53.496;10.020;2023-02-03T23:30:09;4.00;99.90
26051;DHT22;13825;53.496;10.020;2023-02-03T23:32:37;4.00;1.00
26051;DHT22;13825;53.496;10.020;2023-02-03T23:35:04;4.00;1.00
26051;DHT22;13825;53.496;10.020;2023-02-03T23:37:50;4.00;1.00
26051;DHT22;13825;53.496;10.020;2023-02-03T23:40:18;3.90;1.00
26051;DHT22;13825;53.496;10.020;2023-02-03T23:42:45;3.80;1.00
26051;DHT22;13825;53.496;10.020;2023-02-03T23:45:12;3.80;1.00
26051;DHT22;13825;53.496;10.020;2023-02-03T23:47:40;3.70;1.00
26051;DHT22;13825;53.496;10.020;2023-02-03T23:50:08;3.80;1.00
26051;DHT22;13825;53.496;10.020;2023-02-03T23:52:39;3.70;1.00
26051;DHT22;13825;53.496;10.020;2023-02-03T23:55:11;3.70;1.00
26051;DHT22;13825;53.496;10.020;2023-02-03T23:57:38;3.60;1.00
